Ingeniero White, Argentina
Current Conditions -  °F | °C
As of 9:00 PM on Tuesday 25 Nov 2014 (Local Time) from SAZM Reporting Station
Clear Clear  
Wind Chill: 57°   Ceiling: Unl
Heat Index: 57°   Visibility: 6mi
Dew Point: 46°   Wind: 3mph
Humidity: 67%   Direction: 50°NE
Pressure: 29.94"   Gusts: NA
Location:  38.78°S, 62.27°W
Report Text: SAZM 260000Z 05003KT CAVOK 14/08 Q1014
Loading
Personal Weather Stations






























Interactive Weather Map New forecast layout! Learn more

10-Day Weather Forecast

Advertisements
Track Severe Weather on mobile